createdAt,value
2019-03-11T00:01:47.244Z,6.83
2019-03-11T00:04:16.660Z,6.14
2019-03-11T00:06:45.735Z,7.50
2019-03-11T00:09:14.644Z,7.33
2019-03-11T00:11:43.261Z,6.66
2019-03-11T00:14:11.852Z,7.29
2019-03-11T00:16:40.488Z,6.32
2019-03-11T00:19:09.081Z,6.74
2019-03-11T00:21:37.701Z,7.28
2019-03-11T00:24:06.315Z,6.58
2019-03-11T00:26:34.937Z,6.89
2019-03-11T00:29:03.596Z,6.97
2019-03-11T00:31:32.182Z,7.10
2019-03-11T00:34:00.808Z,6.60
2019-03-11T00:36:29.417Z,6.69
2019-03-11T00:38:58.018Z,6.81
2019-03-11T00:41:26.622Z,7.03
2019-03-11T00:43:55.226Z,6.56
2019-03-11T00:46:23.805Z,6.46
2019-03-11T00:48:52.410Z,6.52
2019-03-11T00:51:21.151Z,7.07
2019-03-11T00:53:49.779Z,6.31
2019-03-11T00:56:18.363Z,5.95
2019-03-11T00:58:47.006Z,6.23
2019-03-11T01:01:15.594Z,6.73
2019-03-11T01:03:44.245Z,5.73
2019-03-11T01:06:12.906Z,6.12
2019-03-11T01:08:41.520Z,6.15
2019-03-11T01:11:10.173Z,5.63
2019-03-11T01:13:38.803Z,6.48
2019-03-11T01:16:07.472Z,6.67
2019-03-11T01:18:36.077Z,7.01
2019-03-11T01:21:04.733Z,7.67
2019-03-11T01:23:33.355Z,6.95
2019-03-11T01:26:01.942Z,6.75
2019-03-11T01:28:30.555Z,7.08
2019-03-11T01:30:59.181Z,6.71
2019-03-11T01:33:27.821Z,6.60
2019-03-11T01:35:56.417Z,6.20
2019-03-11T01:38:25.042Z,6.56
2019-03-11T01:40:53.678Z,6.63
2019-03-11T01:43:22.280Z,6.58
2019-03-11T01:45:51.017Z,6.88
2019-03-11T01:48:19.890Z,6.70
2019-03-11T01:50:48.722Z,6.57
2019-03-11T01:53:17.358Z,6.29
2019-03-11T01:55:45.950Z,6.79
2019-03-11T01:58:14.554Z,6.94
2019-03-11T02:00:43.149Z,6.77
2019-03-11T02:03:11.791Z,7.53
2019-03-11T02:05:40.382Z,6.71
2019-03-11T02:08:08.967Z,6.05
2019-03-11T02:10:37.662Z,7.59
2019-03-11T02:13:06.559Z,5.93
2019-03-11T02:15:35.425Z,6.40
2019-03-11T02:18:04.037Z,6.55
2019-03-11T02:20:32.644Z,6.29
2019-03-11T02:23:01.268Z,7.05
2019-03-11T02:25:29.843Z,7.76
2019-03-11T02:27:58.442Z,6.97
2019-03-11T02:30:27.070Z,7.26
2019-03-11T02:32:56.030Z,6.33
2019-03-11T02:35:28.730Z,6.07
2019-03-11T02:37:57.577Z,6.11
2019-03-11T02:40:26.345Z,6.16
2019-03-11T02:42:55.059Z,5.50
2019-03-11T02:45:23.658Z,6.56
2019-03-11T02:47:52.333Z,5.48
2019-03-11T02:50:21.048Z,5.74
2019-03-11T02:52:49.654Z,6.02
2019-03-11T02:55:18.280Z,6.60
2019-03-11T02:57:46.933Z,6.83
2019-03-11T03:00:16.721Z,6.38
2019-03-11T03:02:54.121Z,6.13
2019-03-11T03:05:25.906Z,6.29
2019-03-11T03:07:54.501Z,6.87
2019-03-11T03:10:23.309Z,6.56
2019-03-11T03:12:51.904Z,6.14
2019-03-11T03:15:20.490Z,7.37
2019-03-11T03:17:49.132Z,8.38
2019-03-11T03:20:18.123Z,7.35
2019-03-11T03:22:46.719Z,6.39
2019-03-11T03:25:15.514Z,6.48
2019-03-11T03:27:44.151Z,5.30
2019-03-11T03:30:14.694Z,6.29
2019-03-11T03:32:43.311Z,7.97
2019-03-11T03:35:11.905Z,7.67
2019-03-11T03:37:40.510Z,7.29
2019-03-11T03:40:09.473Z,6.71
2019-03-11T03:42:38.158Z,6.76
2019-03-11T03:45:39.558Z,7.40
2019-03-11T03:48:08.216Z,7.06
2019-03-11T03:50:40.323Z,7.68
2019-03-11T03:53:09.528Z,7.72
2019-03-11T03:55:38.175Z,6.98
2019-03-11T03:58:06.947Z,7.36
2019-03-11T04:00:35.581Z,6.86
2019-03-11T04:03:04.278Z,7.08
2019-03-11T04:05:32.850Z,6.68
2019-03-11T04:08:01.488Z,6.05
2019-03-11T04:10:32.560Z,6.88
2019-03-11T04:13:00.441Z,5.59
2019-03-11T04:15:29.101Z,7.58
2019-03-11T04:17:57.637Z,6.81
2019-03-11T04:20:26.417Z,7.40
2019-03-11T04:22:55.040Z,7.46
2019-03-11T04:25:23.822Z,7.58
2019-03-11T04:27:52.797Z,7.59
2019-03-11T04:30:22.582Z,7.11
2019-03-11T04:32:51.199Z,7.06
2019-03-11T04:35:19.770Z,7.33
2019-03-11T04:37:48.359Z,7.50
2019-03-11T04:40:17.246Z,7.54
2019-03-11T04:42:45.845Z,7.79
2019-03-11T04:45:14.653Z,7.58
2019-03-11T04:47:43.397Z,6.96
2019-03-11T04:50:12.966Z,7.02
2019-03-11T04:52:41.572Z,6.58
2019-03-11T04:55:11.056Z,5.59
2019-03-11T04:57:45.183Z,5.20
2019-03-11T05:00:16.279Z,6.38
2019-03-11T05:02:44.938Z,6.27
2019-03-11T05:05:13.985Z,6.64
2019-03-11T05:07:43.714Z,6.26
2019-03-11T05:10:12.391Z,6.44
2019-03-11T05:12:41.083Z,6.20
2019-03-11T05:15:10.450Z,5.86
2019-03-11T05:17:39.093Z,6.58
2019-03-11T05:20:08.300Z,6.41
2019-03-11T05:22:36.918Z,7.60
2019-03-11T05:25:05.992Z,6.35
2019-03-11T05:27:34.592Z,6.71
2019-03-11T05:30:03.259Z,7.36
2019-03-11T05:32:31.907Z,7.96
2019-03-11T05:35:00.500Z,8.00
2019-03-11T05:37:29.178Z,8.32
2019-03-11T05:39:57.842Z,8.11
2019-03-11T05:42:26.538Z,6.41
2019-03-11T05:44:55.173Z,7.40
2019-03-11T05:47:23.828Z,7.93
2019-03-11T05:49:52.402Z,6.94
2019-03-11T05:52:21.043Z,7.66
2019-03-11T05:54:49.680Z,8.08
2019-03-11T05:57:18.425Z,8.44
2019-03-11T05:59:47.163Z,7.91
2019-03-11T06:02:15.943Z,7.71
2019-03-11T06:04:44.543Z,7.22
2019-03-11T06:07:13.145Z,6.99
2019-03-11T06:09:42.762Z,6.06
2019-03-11T06:12:11.347Z,5.54
2019-03-11T06:14:39.988Z,6.37
2019-03-11T06:17:08.584Z,6.44
2019-03-11T06:19:37.489Z,5.77
2019-03-11T06:22:18.780Z,6.88
2019-03-11T06:24:48.453Z,7.02
2019-03-11T06:27:17.029Z,6.58
2019-03-11T06:29:46.319Z,6.09
2019-03-11T06:32:15.011Z,6.17
2019-03-11T06:34:43.619Z,6.07
2019-03-11T06:37:12.203Z,5.97
2019-03-11T06:39:40.812Z,5.44
2019-03-11T06:42:09.694Z,6.33
2019-03-11T06:44:38.715Z,5.25
2019-03-11T06:47:07.563Z,5.82
2019-03-11T06:49:36.244Z,6.07
2019-03-11T06:52:05.145Z,6.72
2019-03-11T06:54:34.100Z,6.58
2019-03-11T06:57:03.352Z,5.45
2019-03-11T06:59:31.937Z,6.99
2019-03-11T07:02:00.577Z,6.11
2019-03-11T07:04:29.677Z,6.66
2019-03-11T07:06:58.291Z,6.27
2019-03-11T07:09:27.034Z,6.78
2019-03-11T07:11:55.800Z,6.10
2019-03-11T07:14:24.563Z,6.54
2019-03-11T07:16:53.886Z,6.76
2019-03-11T07:19:22.485Z,6.94
2019-03-11T07:21:51.197Z,6.24
2019-03-11T07:24:19.812Z,5.57
2019-03-11T07:26:48.466Z,6.40
2019-03-11T07:29:17.644Z,6.05
2019-03-11T07:31:46.171Z,6.22
2019-03-11T07:34:14.840Z,6.06
2019-03-11T07:36:43.541Z,6.07
2019-03-11T07:39:12.172Z,6.25
2019-03-11T07:41:40.789Z,5.72
2019-03-11T07:46:29.846Z,6.06
2019-03-11T07:48:58.441Z,5.59
2019-03-11T07:51:27.027Z,6.21
2019-03-11T07:53:55.620Z,6.77
2019-03-11T07:56:24.524Z,6.69
2019-03-11T07:58:53.159Z,5.93
2019-03-11T08:01:22.112Z,5.87
2019-03-11T08:03:50.703Z,4.79
2019-03-11T08:06:19.621Z,6.28
2019-03-11T08:08:48.236Z,6.73
2019-03-11T08:11:16.945Z,6.28
2019-03-11T08:13:45.778Z,5.95
2019-03-11T08:16:14.856Z,5.72
2019-03-11T08:18:43.515Z,6.12
2019-03-11T08:21:12.111Z,7.81
2019-03-11T08:23:40.696Z,7.02
2019-03-11T08:26:09.298Z,7.31
2019-03-11T08:28:38.221Z,7.50
2019-03-11T08:31:06.887Z,7.03
2019-03-11T08:33:35.742Z,6.49
2019-03-11T08:36:04.839Z,8.43
2019-03-11T08:38:33.757Z,8.43
2019-03-11T08:41:02.280Z,7.58
2019-03-11T08:43:31.389Z,8.05
2019-03-11T08:46:00.486Z,7.91
2019-03-11T08:48:29.221Z,7.49
2019-03-11T08:50:57.828Z,8.49
2019-03-11T08:53:26.451Z,7.37
2019-03-11T08:55:55.079Z,7.44
2019-03-11T08:58:24.012Z,6.67
2019-03-11T09:00:52.631Z,6.67
2019-03-11T09:03:21.227Z,7.86
2019-03-11T09:05:49.826Z,7.33
2019-03-11T09:08:18.686Z,7.34
2019-03-11T09:10:47.288Z,6.37
2019-03-11T09:13:15.895Z,7.39
2019-03-11T09:15:44.483Z,7.24
2019-03-11T09:18:13.227Z,6.44
2019-03-11T09:20:41.828Z,7.77
2019-03-11T09:23:10.498Z,7.14
2019-03-11T09:25:39.258Z,7.97
2019-03-11T09:28:08.148Z,7.43
2019-03-11T09:30:36.851Z,7.57
2019-03-11T09:33:08.249Z,7.15
2019-03-11T09:35:36.230Z,7.85
2019-03-11T09:38:05.123Z,8.16
2019-03-11T09:40:33.738Z,8.56
2019-03-11T09:43:02.358Z,7.48
2019-03-11T09:45:30.959Z,7.53
2019-03-11T09:47:59.569Z,5.98
2019-03-11T09:50:28.166Z,7.00
2019-03-11T09:52:56.808Z,8.17
2019-03-11T09:55:25.408Z,7.55
2019-03-11T09:57:53.983Z,7.25
2019-03-11T10:00:22.618Z,7.11
2019-03-11T10:02:53.197Z,7.24
2019-03-11T10:05:21.908Z,7.02
2019-03-11T10:07:50.759Z,7.71
2019-03-11T10:10:19.411Z,7.27
2019-03-11T10:12:48.068Z,8.95
2019-03-11T10:15:17.714Z,6.83
2019-03-11T10:17:46.440Z,6.94
2019-03-11T10:20:15.246Z,6.58
2019-03-11T10:22:43.850Z,6.50
2019-03-11T10:25:12.573Z,7.52
2019-03-11T10:27:41.142Z,7.72
2019-03-11T10:30:11.660Z,7.21
2019-03-11T10:32:41.057Z,6.23
2019-03-11T10:35:30.086Z,6.89
2019-03-11T10:37:41.585Z,7.36
2019-03-11T10:40:12.835Z,6.64
2019-03-11T10:42:41.770Z,6.62
2019-03-11T10:45:10.939Z,6.95
2019-03-11T10:47:39.556Z,6.51
2019-03-11T10:50:09.003Z,6.53
2019-03-11T10:52:37.606Z,7.12
2019-03-11T10:55:06.932Z,6.74
2019-03-11T10:57:35.573Z,7.51
2019-03-11T11:00:05.474Z,8.11
2019-03-11T11:02:34.098Z,8.20
2019-03-11T11:05:02.703Z,7.93
2019-03-11T11:07:31.337Z,6.73
2019-03-11T11:10:00.063Z,6.48
2019-03-11T11:12:28.705Z,6.12
2019-03-11T11:14:57.457Z,7.50
2019-03-11T11:17:26.388Z,6.81
2019-03-11T11:20:03.105Z,7.30
2019-03-11T11:22:25.574Z,6.44
2019-03-11T11:24:54.705Z,6.49
2019-03-11T11:27:23.686Z,6.62
2019-03-11T11:29:52.348Z,7.17
2019-03-11T11:32:21.193Z,8.00
2019-03-11T11:34:50.178Z,7.29
2019-03-11T11:37:18.857Z,7.69
2019-03-11T11:39:47.500Z,7.34
2019-03-11T11:42:16.093Z,7.26
2019-03-11T11:44:44.683Z,8.07
2019-03-11T11:47:13.287Z,7.17
2019-03-11T11:49:41.910Z,7.76
2019-03-11T11:52:10.531Z,8.02
2019-03-11T11:54:39.211Z,6.87
2019-03-11T11:57:07.898Z,8.05
2019-03-11T11:59:36.613Z,7.93
2019-03-11T12:02:05.250Z,8.52
2019-03-11T12:04:34.122Z,7.92
2019-03-11T12:07:02.829Z,7.86
2019-03-11T12:09:31.445Z,7.59
2019-03-11T12:12:00.096Z,8.14
2019-03-11T12:14:28.839Z,8.63
2019-03-11T12:16:57.731Z,8.31
2019-03-11T12:19:26.588Z,8.45
2019-03-11T12:21:55.245Z,8.65
2019-03-11T12:24:23.888Z,8.22
2019-03-11T12:26:52.576Z,8.12
2019-03-11T12:29:21.168Z,8.00
2019-03-11T12:31:50.158Z,8.22
2019-03-11T12:34:18.894Z,9.37
2019-03-11T12:36:47.838Z,9.09
2019-03-11T12:39:16.683Z,8.54
2019-03-11T12:41:45.715Z,8.40
2019-03-11T12:44:14.355Z,7.56
2019-03-11T12:46:43.026Z,8.81
2019-03-11T12:49:11.626Z,7.90
2019-03-11T12:51:49.230Z,9.25
2019-03-11T12:54:10.795Z,7.73
2019-03-11T12:56:39.404Z,7.73
2019-03-11T12:59:08.025Z,7.38
2019-03-11T13:01:36.676Z,8.39
2019-03-11T13:04:05.437Z,8.16
2019-03-11T13:06:34.274Z,7.82
2019-03-11T13:09:02.864Z,6.86
2019-03-11T13:11:31.489Z,8.10
2019-03-11T13:14:00.346Z,7.67
2019-03-11T13:16:28.917Z,8.75
2019-03-11T13:18:59.252Z,9.96
2019-03-11T13:21:30.077Z,10.20
2019-03-11T13:23:58.910Z,8.34
2019-03-11T13:26:27.593Z,8.41
2019-03-11T13:28:56.219Z,9.14
2019-03-11T13:31:24.828Z,10.30
2019-03-11T13:33:53.435Z,8.69
2019-03-11T13:36:22.514Z,8.58
2019-03-11T13:38:51.189Z,8.40
2019-03-11T13:41:19.877Z,8.76
2019-03-11T13:43:48.810Z,9.20
2019-03-11T13:46:17.393Z,9.18
2019-03-11T13:48:46.119Z,9.14
2019-03-11T13:51:14.887Z,8.47
2019-03-11T13:53:43.603Z,8.22
2019-03-11T13:56:12.449Z,6.82
2019-03-11T13:58:41.149Z,7.15
2019-03-11T14:01:09.827Z,8.70
2019-03-11T14:03:39.081Z,7.72
2019-03-11T14:06:07.773Z,7.97
2019-03-11T14:08:36.333Z,7.41
2019-03-11T14:11:05.203Z,7.72
2019-03-11T14:13:33.807Z,8.05
2019-03-11T14:16:02.476Z,6.77
2019-03-11T14:18:31.369Z,7.59
2019-03-11T14:20:59.979Z,8.70
2019-03-11T14:23:28.634Z,9.27
2019-03-11T14:25:57.262Z,9.32
2019-03-11T14:28:25.940Z,9.47
2019-03-11T14:30:54.593Z,7.42
2019-03-11T14:33:23.299Z,8.09
2019-03-11T14:35:52.392Z,8.94
2019-03-11T14:38:21.060Z,9.02
2019-03-11T14:40:49.700Z,8.51
2019-03-11T14:43:18.558Z,7.60
2019-03-11T14:45:47.368Z,8.01
2019-03-11T14:48:16.226Z,8.20
2019-03-11T14:50:46.198Z,7.78
2019-03-11T14:53:15.548Z,7.64
2019-03-11T14:55:48.875Z,6.98
2019-03-11T14:58:29.289Z,8.05
2019-03-11T15:00:54.848Z,7.43
2019-03-11T15:03:23.495Z,7.66
2019-03-11T15:05:53.531Z,7.04
2019-03-11T15:08:22.903Z,7.65
2019-03-11T15:10:51.756Z,6.23
2019-03-11T15:13:20.734Z,6.96
2019-03-11T15:15:49.321Z,7.41
2019-03-11T15:18:18.201Z,8.66
2019-03-11T15:20:46.806Z,7.56
2019-03-11T15:23:20.705Z,8.44
2019-03-11T15:25:46.314Z,8.30
2019-03-11T15:28:14.911Z,8.54
2019-03-11T15:30:43.514Z,8.20
2019-03-11T15:33:12.288Z,7.73
2019-03-11T15:35:40.987Z,8.21
2019-03-11T15:38:09.803Z,8.14
2019-03-11T15:40:38.463Z,7.60
2019-03-11T15:43:07.372Z,6.87
2019-03-11T15:45:38.970Z,7.32
2019-03-11T15:48:06.549Z,7.58
2019-03-11T15:50:35.323Z,7.58
2019-03-11T15:53:03.966Z,5.95
2019-03-11T15:55:32.927Z,7.07
2019-03-11T15:58:01.525Z,7.21
2019-03-11T16:00:30.282Z,7.13
2019-03-11T16:02:59.278Z,7.63
2019-03-11T16:05:27.965Z,7.69
2019-03-11T16:07:56.834Z,7.99
2019-03-11T16:10:26.025Z,7.63
2019-03-11T16:12:54.687Z,6.73
2019-03-11T16:15:23.273Z,7.70
2019-03-11T16:17:51.935Z,7.22
2019-03-11T16:20:20.847Z,7.12
2019-03-11T16:22:49.666Z,7.31
2019-03-11T16:25:18.629Z,7.67
2019-03-11T16:27:47.385Z,7.78
2019-03-11T16:30:17.666Z,7.42
2019-03-11T16:32:58.175Z,6.98
2019-03-11T16:35:17.208Z,7.67
2019-03-11T16:37:46.040Z,6.95
2019-03-11T16:40:15.008Z,6.62
2019-03-11T16:42:43.580Z,7.08
2019-03-11T16:45:12.784Z,7.47
2019-03-11T16:47:41.672Z,6.84
2019-03-11T16:50:12.758Z,7.42
2019-03-11T16:52:41.417Z,6.87
2019-03-11T16:55:11.369Z,7.13
2019-03-11T16:57:40.054Z,7.19
2019-03-11T17:00:14.228Z,7.19
2019-03-11T17:02:42.890Z,7.09
2019-03-11T17:05:11.627Z,7.15
2019-03-11T17:07:40.381Z,6.19
2019-03-11T17:10:10.184Z,6.25
2019-03-11T17:12:38.825Z,6.60
2019-03-11T17:15:08.011Z,7.06
2019-03-11T17:17:36.794Z,6.53
2019-03-11T17:20:06.105Z,7.13
2019-03-11T17:22:35.375Z,7.25
2019-03-11T17:25:03.999Z,6.85
2019-03-11T17:27:32.864Z,6.13
2019-03-11T17:30:02.048Z,5.51
2019-03-11T17:32:30.664Z,5.85
2019-03-11T17:34:59.283Z,5.87
2019-03-11T17:37:29.627Z,6.45
2019-03-11T17:39:58.275Z,6.93
2019-03-11T17:42:27.431Z,6.75
2019-03-11T17:44:56.764Z,7.25
2019-03-11T17:47:26.066Z,6.05
2019-03-11T17:49:54.901Z,5.10
2019-03-11T17:52:24.639Z,5.95
2019-03-11T17:54:53.314Z,5.89
2019-03-11T17:57:21.984Z,5.95
2019-03-11T17:59:51.011Z,6.60
2019-03-11T18:02:19.623Z,5.33
2019-03-11T18:04:48.390Z,5.96
2019-03-11T18:07:17.126Z,6.47
2019-03-11T18:09:46.080Z,6.16
2019-03-11T18:12:14.664Z,6.89
2019-03-11T18:14:43.292Z,7.09
2019-03-11T18:17:12.399Z,7.55
2019-03-11T18:19:41.012Z,6.44
2019-03-11T18:22:09.592Z,6.43
2019-03-11T18:24:38.225Z,5.26
2019-03-11T18:27:06.955Z,5.99
2019-03-11T18:29:35.588Z,6.55
2019-03-11T18:32:04.506Z,7.00
2019-03-11T18:34:33.391Z,6.91
2019-03-11T18:37:01.978Z,7.33
2019-03-11T18:39:31.081Z,7.76
2019-03-11T18:42:00.043Z,7.58
2019-03-11T18:44:28.969Z,6.98
2019-03-11T18:46:58.137Z,7.20
2019-03-11T18:49:27.031Z,6.78
2019-03-11T18:51:55.737Z,6.33
2019-03-11T18:54:24.890Z,6.03
2019-03-11T18:56:53.672Z,6.23
2019-03-11T18:59:22.536Z,7.52
2019-03-11T19:01:51.495Z,5.62
2019-03-11T19:04:20.143Z,6.88
2019-03-11T19:06:48.844Z,6.06
2019-03-11T19:09:17.720Z,6.79
2019-03-11T19:11:46.320Z,5.87
2019-03-11T19:14:14.957Z,7.37
2019-03-11T19:16:44.109Z,6.26
2019-03-11T19:19:13.282Z,6.44
2019-03-11T19:21:41.962Z,6.08
2019-03-11T19:24:11.017Z,6.63
2019-03-11T19:26:40.696Z,7.04
2019-03-11T19:29:09.221Z,6.62
2019-03-11T19:31:38.442Z,7.25
2019-03-11T19:34:07.086Z,6.83
2019-03-11T19:36:35.827Z,6.94
2019-03-11T19:39:07.015Z,6.54
2019-03-11T19:41:35.703Z,7.66
2019-03-11T19:44:04.498Z,7.11
2019-03-11T19:46:34.845Z,6.60
2019-03-11T19:49:04.019Z,7.14
2019-03-11T19:51:33.055Z,6.08
2019-03-11T19:54:01.746Z,6.64
2019-03-11T19:56:30.419Z,6.43
2019-03-11T19:58:59.818Z,6.35
2019-03-11T20:01:28.535Z,6.28
2019-03-11T20:03:57.260Z,7.27
2019-03-11T20:06:25.932Z,7.77
2019-03-11T20:08:56.440Z,5.79
2019-03-11T20:11:25.373Z,6.71
2019-03-11T20:13:54.759Z,6.76
2019-03-11T20:16:26.160Z,6.81
2019-03-11T20:18:55.470Z,7.25
2019-03-11T20:21:24.248Z,6.89
2019-03-11T20:23:52.899Z,6.42
2019-03-11T20:26:22.672Z,7.60
2019-03-11T20:28:51.959Z,7.07
2019-03-11T20:31:21.063Z,6.76
2019-03-11T20:33:50.618Z,7.63
2019-03-11T20:36:21.104Z,8.25
2019-03-11T20:38:50.545Z,7.77
2019-03-11T20:41:19.132Z,7.74
2019-03-11T20:43:48.615Z,7.32
2019-03-11T20:46:17.488Z,7.12
2019-03-11T20:48:46.682Z,6.88
2019-03-11T20:51:15.918Z,7.03
2019-03-11T20:53:44.935Z,6.64
2019-03-11T20:56:13.925Z,6.53
2019-03-11T20:58:42.563Z,6.83
2019-03-11T21:01:11.237Z,6.60
2019-03-11T21:03:40.242Z,6.71
2019-03-11T21:06:09.360Z,6.96
2019-03-11T21:08:38.579Z,7.22
2019-03-11T21:11:07.605Z,6.52
2019-03-11T21:13:36.551Z,7.33
2019-03-11T21:16:05.435Z,6.86
2019-03-11T21:18:34.593Z,7.07
2019-03-11T21:21:05.312Z,7.21
2019-03-11T21:23:35.084Z,7.21
2019-03-11T21:26:04.598Z,7.10
2019-03-11T21:28:34.243Z,7.12
2019-03-11T21:31:03.975Z,7.71
2019-03-11T21:33:35.450Z,6.45
2019-03-11T21:36:04.575Z,6.50
2019-03-11T21:38:34.556Z,7.42
2019-03-11T21:41:03.524Z,6.89
2019-03-11T21:43:32.920Z,6.57
2019-03-11T21:46:01.950Z,6.84
2019-03-11T21:48:33.540Z,7.56
2019-03-11T21:51:02.264Z,7.78
2019-03-11T21:53:31.133Z,7.55
2019-03-11T21:56:00.054Z,7.19
2019-03-11T21:58:29.011Z,7.54
2019-03-11T22:00:57.855Z,7.03
2019-03-11T22:03:26.480Z,7.30
2019-03-11T22:05:55.125Z,7.31
2019-03-11T22:08:23.782Z,7.14
2019-03-11T22:10:52.370Z,7.07
2019-03-11T22:13:21.027Z,7.48
2019-03-11T22:15:49.641Z,7.19
2019-03-11T22:18:18.281Z,7.25
2019-03-11T22:20:47.411Z,6.88
2019-03-11T22:23:16.307Z,7.85
2019-03-11T22:25:44.909Z,7.42
2019-03-11T22:28:13.755Z,7.23
2019-03-11T22:30:42.436Z,7.77
2019-03-11T22:33:11.255Z,7.75
2019-03-11T22:35:40.033Z,7.43
2019-03-11T22:38:09.119Z,6.70
2019-03-11T22:40:38.084Z,6.95
2019-03-11T22:43:06.704Z,7.19
2019-03-11T22:45:35.639Z,7.06
2019-03-11T22:48:04.298Z,6.96
2019-03-11T22:50:32.918Z,6.14
2019-03-11T22:53:01.514Z,6.77
2019-03-11T22:55:30.125Z,7.03
2019-03-11T22:57:58.729Z,7.11
2019-03-11T23:00:53.783Z,6.92
2019-03-11T23:03:22.842Z,6.51
2019-03-11T23:05:57.779Z,7.18
2019-03-11T23:08:22.053Z,6.61
2019-03-11T23:10:51.250Z,7.78
2019-03-11T23:13:19.935Z,7.40
2019-03-11T23:15:48.554Z,7.76
2019-03-11T23:18:17.454Z,8.36
2019-03-11T23:20:46.554Z,7.75
2019-03-11T23:23:15.202Z,7.52
2019-03-11T23:25:43.876Z,6.71
2019-03-11T23:28:12.759Z,7.76
2019-03-11T23:30:41.485Z,8.46
2019-03-11T23:33:10.343Z,7.33
2019-03-11T23:35:39.162Z,7.83
2019-03-11T23:38:08.003Z,8.33
2019-03-11T23:40:37.009Z,7.52
2019-03-11T23:43:05.681Z,6.45
2019-03-11T23:45:34.622Z,7.87
2019-03-11T23:48:03.243Z,7.28
2019-03-11T23:50:31.937Z,7.01
2019-03-11T23:53:00.782Z,7.29
2019-03-11T23:55:29.414Z,7.84
2019-03-11T23:57:58.094Z,7.63
